Talitha — ZCAN7 — position and weather

sailwx.info

Track history (hours):
 
Tides and Currents Weather Stations Pressure Air Temp Water Temp Dewpoint Dewpoint Depression Visibility Wind Speed Wind Dir Waves Ship Positions

Talitha

Last reported at 2016-Jun-25 22:30 UTC. Time now 2016-Jun-26 10:13 UTC.
Position N 37°50' E 015°59'.

Length 80 m; draft 3.6 m.

Type: Pleasure craft. MMSI: 310051000.

Date/timePositionNaut miles runAvg speedWind from/ knotsBaromVisibWave heightAir tempDewpointWater temp
2016-Jun-25 22:30N 37°50' E 015°59'1212.3
2016-Jun-25 21:33N 37°53' E 015°45'1111.4
2016-Jun-25 20:34N 38°01' E 015°34'1312.7
2016-Jun-25 19:33N 38°13' E 015°36'1010.4
2016-Jun-25 18:33N 38°24' E 015°38'1212.5
2016-Jun-25 17:33N 38°35' E 015°32'1312.6
2016-Jun-25 16:33N 38°47' E 015°25'1313.0
2016-Jun-25 15:32N 38°59' E 015°18'9312.9
2016-Jun-25 08:19N 40°22' E 014°26'1012.8
2016-Jun-25 07:33N 40°31' E 014°20'1312.5
2016-Jun-25 06:33N 40°43' E 014°16'6 0.3
2016-Jun-24 10:25N 40°50' E 014°14'910.9
2016-Jun-24 09:33N 40°40' E 014°16'7 6.1
2016-Jun-24 08:28N 40°34' E 014°14'0 0.0
2016-Jun-24 07:28N 40°34' E 014°14'1 0.0
2016-Jun-22 20:15N 40°32' E 014°15'0 0.0
2016-Jun-22 19:27N 40°32' E 014°15'0 0.0
2016-Jun-22 18:15N 40°32' E 014°15'0 0.0
2016-Jun-22 11:30N 40°32' E 014°15'0 0.0
2016-Jun-21 20:33N 40°32' E 014°15'0 0.0
2016-Jun-21 19:33N 40°32' E 014°15'0 0.0
2016-Jun-21 18:30N 40°32' E 014°15'0 0.0
2016-Jun-21 17:27N 40°32' E 014°15'0 0.0
2016-Jun-21 12:21N 40°32' E 014°15'0 0.0
2016-Jun-21 11:21N 40°32' E 014°15'0 0.1
2016-Jun-21 10:33N 40°32' E 014°15'0 0.0
2016-Jun-20 20:09N 40°33' E 014°15'0 0.0
2016-Jun-20 19:30N 40°33' E 014°15'0 0.0
2016-Jun-20 18:33N 40°33' E 014°15'17 2.8
2016-Jun-20 12:23N 40°50' E 014°15'0 0.0
2016-Jun-20 11:28N 40°50' E 014°14'0 0.0
2016-Jun-19 19:09N 40°50' E 014°15'0 0.0
2016-Jun-19 14:18N 40°50' E 014°14'0 0.0
2016-Jun-19 13:12N 40°50' E 014°14'0 0.0
2016-Jun-19 11:30N 40°50' E 014°14'0 0.0
2016-Jun-19 10:30N 40°50' E 014°14'0 0.0
2016-Jun-19 09:18N 40°50' E 014°14'0 0.0
2016-Jun-19 08:30N 40°50' E 014°14'0 0.1
2016-Jun-19 05:33N 40°49' E 014°14'9 9.0
2016-Jun-19 04:33N 40°44' E 014°05'13 9.7
2016-Jun-19 03:13N 40°40' E 013°49'16 9.5
2016-Jun-19 01:33N 40°42' E 013°28'50 9.6
2016-Jun-18 20:22N 41°04' E 012°29'8 9.8
2016-Jun-18 19:31N 41°09' E 012°21'10 9.9
2016-Jun-18 18:33N 41°16' E 012°11'1212.4
2016-Jun-18 17:33N 41°24' E 011°59'1313.1
2016-Jun-18 16:33N 41°33' E 011°47'1413.1
2016-Jun-18 15:28N 41°43' E 011°33'1213.0
2016-Jun-18 14:33N 41°51' E 011°21'3012.9
2016-Jun-18 12:14N 42°11' E 010°51'3712.9
2016-Jun-18 09:25N 42°36' E 010°15'2412.8
2016-Jun-18 07:34N 42°51' E 009°50'5012.6
2016-Jun-18 03:33N 43°16' E 008°50'1212.3
2016-Jun-18 02:33N 43°20' E 008°35'1212.2
2016-Jun-18 01:33N 43°25' E 008°19'1212.1
2016-Jun-18 00:34N 43°29' E 008°03'1211.8
2016-Jun-17 23:33N 43°34' E 007°48'1212.0
2016-Jun-17 22:33N 43°38' E 007°33'9 8.2
2016-Jun-17 21:25N 43°42' E 007°21'0 0.0
2016-Jun-17 20:31N 43°42' E 007°21'0 0.0
2016-Jun-17 19:31N 43°42' E 007°21'0 0.0
2016-Jun-17 18:31N 43°42' E 007°21'0 0.0
2016-Jun-17 16:31N 43°42' E 007°21'0 0.0
2016-Jun-17 15:25N 43°42' E 007°21'0 0.0
2016-Jun-17 14:31N 43°42' E 007°21'0 0.0
2016-Jun-17 11:25N 43°42' E 007°21'0 0.0
2016-Jun-17 09:31N 43°42' E 007°21'0 0.0
2016-Jun-17 08:25N 43°42' E 007°21'0 0.0
2016-Jun-17 07:19N 43°42' E 007°21'0 0.0
2016-Jun-17 06:31N 43°42' E 007°21'0 0.4
2016-Jun-17 05:33N 43°41' E 007°21'3 1.5
2016-Jun-17 03:23N 43°42' E 007°17'0 0.0
2016-Jun-17 02:17N 43°42' E 007°17'0 0.0
2016-Jun-17 01:29N 43°42' E 007°17'0 0.0
2016-Jun-17 00:29N 43°42' E 007°17'0 0.0
2016-Jun-16 22:29N 43°42' E 007°17'0 0.0
2016-Jun-16 21:29N 43°42' E 007°17'0 0.0
2016-Jun-16 20:29N 43°42' E 007°17'0 0.0
2016-Jun-16 19:17N 43°42' E 007°17'0 0.0
2016-Jun-16 18:29N 43°42' E 007°17'0 0.0
2016-Jun-16 17:29N 43°42' E 007°17'0 0.0
2016-Jun-16 16:29N 43°42' E 007°17'0 0.0
2016-Jun-16 14:29N 43°42' E 007°17'0 0.0
2016-Jun-16 13:29N 43°42' E 007°17'0 0.0
2016-Jun-16 12:17N 43°42' E 007°17'0 0.0
2016-Jun-16 11:29N 43°42' E 007°17'0 0.0
2016-Jun-16 10:23N 43°42' E 007°17'0 0.0
2016-Jun-16 09:29N 43°42' E 007°17'0 0.0
2016-Jun-16 08:29N 43°42' E 007°17'0 0.0
2016-Jun-16 07:32N 43°42' E 007°17'0 0.0
2016-Jun-16 06:29N 43°42' E 007°17'0 0.0
2016-Jun-16 05:29N 43°42' E 007°17'0 0.0
2016-Jun-16 04:11N 43°42' E 007°17'0 0.0
2016-Jun-16 03:32N 43°42' E 007°17'0 0.0
2016-Jun-16 02:32N 43°42' E 007°17'0 0.0
2016-Jun-16 01:29N 43°42' E 007°17'0 0.0
2016-Jun-15 23:32N 43°42' E 007°17'  
Track history (hours):
 
Tides and Currents Weather Stations Pressure Air Temp Water Temp Dewpoint Dewpoint Depression Visibility Wind Speed Wind Dir Waves Ship Positions

Talitha

Last reported at 2016-Jun-25 22:30 UTC. Time now 2016-Jun-26 10:13 UTC.
Position N 37°50' E 015°59'.

Length 80 m; draft 3.6 m.

Type: Pleasure craft. MMSI: 310051000.

Date/timePositionNaut miles runAvg speedWind from/ knotsBaromVisibWave heightAir tempDewpointWater temp
2016-Jun-25 22:30N 37°50' E 015°59'1212.3
2016-Jun-25 21:33N 37°53' E 015°45'1111.4
2016-Jun-25 20:34N 38°01' E 015°34'1312.7
2016-Jun-25 19:33N 38°13' E 015°36'1010.4
2016-Jun-25 18:33N 38°24' E 015°38'1212.5
2016-Jun-25 17:33N 38°35' E 015°32'1312.6
2016-Jun-25 16:33N 38°47' E 015°25'1313.0
2016-Jun-25 15:32N 38°59' E 015°18'9312.9
2016-Jun-25 08:19N 40°22' E 014°26'1012.8
2016-Jun-25 07:33N 40°31' E 014°20'1312.5
2016-Jun-25 06:33N 40°43' E 014°16'6 0.3
2016-Jun-24 10:25N 40°50' E 014°14'910.9
2016-Jun-24 09:33N 40°40' E 014°16'7 6.1
2016-Jun-24 08:28N 40°34' E 014°14'0 0.0
2016-Jun-24 07:28N 40°34' E 014°14'1 0.0
2016-Jun-22 20:15N 40°32' E 014°15'0 0.0
2016-Jun-22 19:27N 40°32' E 014°15'0 0.0
2016-Jun-22 18:15N 40°32' E 014°15'0 0.0
2016-Jun-22 11:30N 40°32' E 014°15'0 0.0
2016-Jun-21 20:33N 40°32' E 014°15'0 0.0
2016-Jun-21 19:33N 40°32' E 014°15'0 0.0
2016-Jun-21 18:30N 40°32' E 014°15'0 0.0
2016-Jun-21 17:27N 40°32' E 014°15'0 0.0
2016-Jun-21 12:21N 40°32' E 014°15'0 0.0
2016-Jun-21 11:21N 40°32' E 014°15'0 0.1
2016-Jun-21 10:33N 40°32' E 014°15'0 0.0
2016-Jun-20 20:09N 40°33' E 014°15'0 0.0
2016-Jun-20 19:30N 40°33' E 014°15'0 0.0
2016-Jun-20 18:33N 40°33' E 014°15'17 2.8
2016-Jun-20 12:23N 40°50' E 014°15'0 0.0
2016-Jun-20 11:28N 40°50' E 014°14'0 0.0
2016-Jun-19 19:09N 40°50' E 014°15'0 0.0
2016-Jun-19 14:18N 40°50' E 014°14'0 0.0
2016-Jun-19 13:12N 40°50' E 014°14'0 0.0
2016-Jun-19 11:30N 40°50' E 014°14'0 0.0
2016-Jun-19 10:30N 40°50' E 014°14'0 0.0
2016-Jun-19 09:18N 40°50' E 014°14'0 0.0
2016-Jun-19 08:30N 40°50' E 014°14'0 0.1
2016-Jun-19 05:33N 40°49' E 014°14'9 9.0
2016-Jun-19 04:33N 40°44' E 014°05'13 9.7
2016-Jun-19 03:13N 40°40' E 013°49'16 9.5
2016-Jun-19 01:33N 40°42' E 013°28'50 9.6
2016-Jun-18 20:22N 41°04' E 012°29'8 9.8
2016-Jun-18 19:31N 41°09' E 012°21'10 9.9
2016-Jun-18 18:33N 41°16' E 012°11'1212.4
2016-Jun-18 17:33N 41°24' E 011°59'1313.1
2016-Jun-18 16:33N 41°33' E 011°47'1413.1
2016-Jun-18 15:28N 41°43' E 011°33'1213.0
2016-Jun-18 14:33N 41°51' E 011°21'3012.9
2016-Jun-18 12:14N 42°11' E 010°51'3712.9
2016-Jun-18 09:25N 42°36' E 010°15'2412.8
2016-Jun-18 07:34N 42°51' E 009°50'5012.6
2016-Jun-18 03:33N 43°16' E 008°50'1212.3
2016-Jun-18 02:33N 43°20' E 008°35'1212.2
2016-Jun-18 01:33N 43°25' E 008°19'1212.1
2016-Jun-18 00:34N 43°29' E 008°03'1211.8
2016-Jun-17 23:33N 43°34' E 007°48'1212.0
2016-Jun-17 22:33N 43°38' E 007°33'9 8.2
2016-Jun-17 21:25N 43°42' E 007°21'0 0.0
2016-Jun-17 20:31N 43°42' E 007°21'0 0.0
2016-Jun-17 19:31N 43°42' E 007°21'0 0.0
2016-Jun-17 18:31N 43°42' E 007°21'0 0.0
2016-Jun-17 16:31N 43°42' E 007°21'0 0.0
2016-Jun-17 15:25N 43°42' E 007°21'0 0.0
2016-Jun-17 14:31N 43°42' E 007°21'0 0.0
2016-Jun-17 11:25N 43°42' E 007°21'0 0.0
2016-Jun-17 09:31N 43°42' E 007°21'0 0.0
2016-Jun-17 08:25N 43°42' E 007°21'0 0.0
2016-Jun-17 07:19N 43°42' E 007°21'0 0.0
2016-Jun-17 06:31N 43°42' E 007°21'0 0.4
2016-Jun-17 05:33N 43°41' E 007°21'3 1.5
2016-Jun-17 03:23N 43°42' E 007°17'0 0.0
2016-Jun-17 02:17N 43°42' E 007°17'0 0.0
2016-Jun-17 01:29N 43°42' E 007°17'0 0.0
2016-Jun-17 00:29N 43°42' E 007°17'0 0.0
2016-Jun-16 22:29N 43°42' E 007°17'0 0.0
2016-Jun-16 21:29N 43°42' E 007°17'0 0.0
2016-Jun-16 20:29N 43°42' E 007°17'0 0.0
2016-Jun-16 19:17N 43°42' E 007°17'0 0.0
2016-Jun-16 18:29N 43°42' E 007°17'0 0.0
2016-Jun-16 17:29N 43°42' E 007°17'0 0.0
2016-Jun-16 16:29N 43°42' E 007°17'0 0.0
2016-Jun-16 14:29N 43°42' E 007°17'0 0.0
2016-Jun-16 13:29N 43°42' E 007°17'0 0.0
2016-Jun-16 12:17N 43°42' E 007°17'0 0.0
2016-Jun-16 11:29N 43°42' E 007°17'0 0.0
2016-Jun-16 10:23N 43°42' E 007°17'0 0.0
2016-Jun-16 09:29N 43°42' E 007°17'0 0.0
2016-Jun-16 08:29N 43°42' E 007°17'0 0.0
2016-Jun-16 07:32N 43°42' E 007°17'0 0.0
2016-Jun-16 06:29N 43°42' E 007°17'0 0.0
2016-Jun-16 05:29N 43°42' E 007°17'0 0.0
2016-Jun-16 04:11N 43°42' E 007°17'0 0.0
2016-Jun-16 03:32N 43°42' E 007°17'0 0.0
2016-Jun-16 02:32N 43°42' E 007°17'0 0.0
2016-Jun-16 01:29N 43°42' E 007°17'0 0.0
2016-Jun-15 23:32N 43°42' E 007°17'  

Dump ship's entire track history